OOL weather

Gold Coast Airport
Gold Coast, Queensland, Australia

Public forecast

Using degrees Celsius for public forecast. Weather courtesy of forecast.io.

METAR (pilot weather report)

Retrieved 2017/10/21 02:30 UTC (0 seconds ago):

YBCG 210230Z AUTO 21009KT 9999 DZ SCT015 SCT028 SCT053 17/16 Q1015

TAF (pilot weather forecast)

Forecast is more than 12 hours old.

Retrieved 2017/10/20 12:00 UTC (14 hours ago):

TAF YBCG 201128Z 2012/2112 31007KT 9999 FEW025 SCT060 FM201500 32006KT 9999 -RA FEW025 BKN050 BKN120 FM201800 24008KT 9000 -RA SCT015 BKN045 OVC100 FM202100 20018KT 8000 -RA BKN015 BKN025 OVC060 FM210600 19016KT 9999 -SHRA SCT015 BKN040 TEMPO 2018/2106 4000 RA BKN010 INTER 2106/2108 4000 SHRA BKN012